sensor_id;sensor_type;location;lat;lon;timestamp;pressure;altitude;pressure_sealevel;temperature;humidity
18900;BME280;9582;52.018;6.306;2023-02-22T00:00:09;101454.19;;;7.35;100.00
18900;BME280;9582;52.018;6.306;2023-02-22T00:02:45;101457.72;;;7.31;100.00
18900;BME280;9582;52.018;6.306;2023-02-22T00:05:13;101450.78;;;7.32;100.00
18900;BME280;9582;52.018;6.306;2023-02-22T00:07:41;101440.31;;;7.35;100.00
18900;BME280;9582;52.018;6.306;2023-02-22T00:10:09;101434.28;;;7.33;100.00
18900;BME280;9582;52.018;6.306;2023-02-22T00:12:38;101432.69;;;7.26;100.00
18900;BME280;9582;52.018;6.306;2023-02-22T00:15:05;101419.75;;;7.24;100.00
18900;BME280;9582;52.018;6.306;2023-02-22T00:17:31;101431.94;;;7.22;100.00
18900;BME280;9582;52.018;6.306;2023-02-22T00:19:59;101418.94;;;7.21;100.00
18900;BME280;9582;52.018;6.306;2023-02-22T00:22:26;101423.28;;;7.20;100.00
18900;BME280;9582;52.018;6.306;2023-02-22T00:24:52;101420.66;;;7.22;100.00
18900;BME280;9582;52.018;6.306;2023-02-22T00:27:19;101426.91;;;7.13;100.00
18900;BME280;9582;52.018;6.306;2023-02-22T00:29:48;101429.41;;;7.18;100.00
18900;BME280;9582;52.018;6.306;2023-02-22T00:32:15;101419.81;;;7.20;100.00
18900;BME280;9582;52.018;6.306;2023-02-22T00:34:41;101424.28;;;7.15;100.00
18900;BME280;9582;52.018;6.306;2023-02-22T00:37:10;101420.84;;;7.13;100.00
18900;BME280;9582;52.018;6.306;2023-02-22T00:39:36;101423.50;;;7.11;100.00
18900;BME280;9582;52.018;6.306;2023-02-22T00:42:03;101424.38;;;7.10;100.00
18900;BME280;9582;52.018;6.306;2023-02-22T00:44:30;101420.97;;;7.08;100.00
18900;BME280;9582;52.018;6.306;2023-02-22T00:46:57;101420.19;;;7.03;100.00
18900;BME280;9582;52.018;6.306;2023-02-22T00:49:23;101425.44;;;7.00;100.00
18900;BME280;9582;52.018;6.306;2023-02-22T00:51:50;101429.81;;;7.00;100.00
18900;BME280;9582;52.018;6.306;2023-02-22T00:54:18;101421.16;;;6.97;100.00
18900;BME280;9582;52.018;6.306;2023-02-22T00:56:45;101430.69;;;6.98;100.00
18900;BME280;9582;52.018;6.306;2023-02-22T00:59:11;101423.75;;;6.99;100.00
18900;BME280;9582;52.018;6.306;2023-02-22T01:01:38;101422.78;;;7.03;100.00
18900;BME280;9582;52.018;6.306;2023-02-22T01:04:04;101414.16;;;7.01;100.00
18900;BME280;9582;52.018;6.306;2023-02-22T01:06:31;101415.94;;;6.99;100.00
18900;BME280;9582;52.018;6.306;2023-02-22T01:08:58;101413.31;;;7.01;100.00
18900;BME280;9582;52.018;6.306;2023-02-22T01:11:28;101403.66;;;7.06;100.00
18900;BME280;9582;52.018;6.306;2023-02-22T01:13:55;101400.19;;;7.07;100.00
18900;BME280;9582;52.018;6.306;2023-02-22T01:16:22;101406.41;;;7.00;100.00
18900;BME280;9582;52.018;6.306;2023-02-22T01:18:48;101401.16;;;7.03;100.00
18900;BME280;9582;52.018;6.306;2023-02-22T01:21:15;101408.84;;;7.06;100.00
18900;BME280;9582;52.018;6.306;2023-02-22T01:23:43;101395.91;;;7.04;100.00
18900;BME280;9582;52.018;6.306;2023-02-22T01:26:10;101398.53;;;7.03;100.00
18900;BME280;9582;52.018;6.306;2023-02-22T01:28:38;101389.03;;;7.02;100.00
18900;BME280;9582;52.018;6.306;2023-02-22T01:31:04;101396.03;;;6.98;100.00
18900;BME280;9582;52.018;6.306;2023-02-22T01:33:31;101395.22;;;6.94;100.00
18900;BME280;9582;52.018;6.306;2023-02-22T01:35:58;101397.88;;;6.91;100.00
18900;BME280;9582;52.018;6.306;2023-02-22T01:38:26;101390.19;;;6.88;100.00
18900;BME280;9582;52.018;6.306;2023-02-22T01:40:53;101392.78;;;6.88;100.00
18900;BME280;9582;52.018;6.306;2023-02-22T01:43:22;101388.44;;;6.87;100.00
18900;BME280;9582;52.018;6.306;2023-02-22T01:45:56;101374.59;;;6.87;100.00
18900;BME280;9582;52.018;6.306;2023-02-22T01:48:27;101376.38;;;6.83;100.00
18900;BME280;9582;52.018;6.306;2023-02-22T01:50:57;101373.72;;;6.88;100.00
18900;BME280;9582;52.018;6.306;2023-02-22T01:53:29;101373.78;;;6.85;100.00
18900;BME280;9582;52.018;6.306;2023-02-22T01:55:59;101366.03;;;6.82;100.00
18900;BME280;9582;52.018;6.306;2023-02-22T01:58:27;101362.59;;;6.81;100.00
18900;BME280;9582;52.018;6.306;2023-02-22T02:00:57;101362.66;;;6.78;100.00
18900;BME280;9582;52.018;6.306;2023-02-22T02:03:25;101361.81;;;6.76;100.00
18900;BME280;9582;52.018;6.306;2023-02-22T02:05:55;101360.28;;;6.66;100.00
18900;BME280;9582;52.018;6.306;2023-02-22T02:08:29;101362.06;;;6.64;100.00
18900;BME280;9582;52.018;6.306;2023-02-22T02:11:01;101363.00;;;6.62;100.00
18900;BME280;9582;52.018;6.306;2023-02-22T02:13:28;101350.00;;;6.62;100.00
18900;BME280;9582;52.018;6.306;2023-02-22T02:15:56;101345.72;;;6.58;100.00
18900;BME280;9582;52.018;6.306;2023-02-22T02:18:25;101350.97;;;6.56;100.00
18900;BME280;9582;52.018;6.306;2023-02-22T02:21:14;101348.38;;;6.56;100.00
18900;BME280;9582;52.018;6.306;2023-02-22T02:24:18;101340.63;;;6.53;100.00
18900;BME280;9582;52.018;6.306;2023-02-22T02:27:04;101344.16;;;6.49;100.00
18900;BME280;9582;52.018;6.306;2023-02-22T02:29:53;101343.28;;;6.50;100.00
18900;BME280;9582;52.018;6.306;2023-02-22T02:32:35;101337.28;;;6.48;100.00
18900;BME280;9582;52.018;6.306;2023-02-22T02:35:11;101338.97;;;6.49;100.00
18900;BME280;9582;52.018;6.306;2023-02-22T02:37:46;101334.63;;;6.50;100.00
18900;BME280;9582;52.018;6.306;2023-02-22T02:40:20;101327.75;;;6.49;100.00
18900;BME280;9582;52.018;6.306;2023-02-22T02:42:54;101327.72;;;6.50;100.00
18900;BME280;9582;52.018;6.306;2023-02-22T02:45:28;101328.56;;;6.51;100.00
18900;BME280;9582;52.018;6.306;2023-02-22T02:47:58;101325.13;;;6.50;100.00
18900;BME280;9582;52.018;6.306;2023-02-22T02:50:30;101322.56;;;6.49;100.00
18900;BME280;9582;52.018;6.306;2023-02-22T02:53:02;101315.59;;;6.49;100.00
18900;BME280;9582;52.018;6.306;2023-02-22T02:55:31;101310.44;;;6.48;100.00
18900;BME280;9582;52.018;6.306;2023-02-22T02:58:01;101308.66;;;6.50;100.00
18900;BME280;9582;52.018;6.306;2023-02-22T03:00:31;101307.84;;;6.48;100.00
18900;BME280;9582;52.018;6.306;2023-02-22T03:03:33;101297.50;;;6.46;100.00
18900;BME280;9582;52.018;6.306;2023-02-22T03:06:19;101294.91;;;6.45;100.00
18900;BME280;9582;52.018;6.306;2023-02-22T03:08:54;101292.22;;;6.49;100.00
18900;BME280;9582;52.018;6.306;2023-02-22T03:11:26;101299.19;;;6.47;100.00
18900;BME280;9582;52.018;6.306;2023-02-22T03:14:10;101283.59;;;6.47;100.00
18900;BME280;9582;52.018;6.306;2023-02-22T03:16:41;101287.13;;;6.46;100.00
18900;BME280;9582;52.018;6.306;2023-02-22T03:19:15;101286.19;;;6.49;100.00
18900;BME280;9582;52.018;6.306;2023-02-22T03:21:46;101280.19;;;6.45;100.00
18900;BME280;9582;52.018;6.306;2023-02-22T03:24:20;101278.47;;;6.46;100.00
18900;BME280;9582;52.018;6.306;2023-02-22T03:26:52;101286.31;;;6.41;100.00
18900;BME280;9582;52.018;6.306;2023-02-22T03:29:25;101278.59;;;6.38;100.00
18900;BME280;9582;52.018;6.306;2023-02-22T03:31:55;101281.22;;;6.36;100.00
18900;BME280;9582;52.018;6.306;2023-02-22T03:34:32;101285.56;;;6.36;100.00
18900;BME280;9582;52.018;6.306;2023-02-22T03:37:07;101281.22;;;6.36;100.00
18900;BME280;9582;52.018;6.306;2023-02-22T03:39:42;101286.50;;;6.33;100.00
18900;BME280;9582;52.018;6.306;2023-02-22T03:42:14;101286.50;;;6.33;100.00
18900;BME280;9582;52.018;6.306;2023-02-22T03:44:44;101289.19;;;6.29;100.00
18900;BME280;9582;52.018;6.306;2023-02-22T03:47:17;101286.50;;;6.33;100.00
18900;BME280;9582;52.018;6.306;2023-02-22T03:49:50;101279.63;;;6.29;100.00
18900;BME280;9582;52.018;6.306;2023-02-22T03:52:19;101281.34;;;6.30;100.00
18900;BME280;9582;52.018;6.306;2023-02-22T03:54:47;101281.41;;;6.27;100.00
18900;BME280;9582;52.018;6.306;2023-02-22T03:57:21;101284.00;;;6.29;100.00
18900;BME280;9582;52.018;6.306;2023-02-22T04:00:00;101285.75;;;6.27;100.00
18900;BME280;9582;52.018;6.306;2023-02-22T04:02:38;101283.19;;;6.25;100.00
18900;BME280;9582;52.018;6.306;2023-02-22T04:05:07;101281.53;;;6.21;100.00
18900;BME280;9582;52.018;6.306;2023-02-22T04:07:34;101278.97;;;6.20;100.00
18900;BME280;9582;52.018;6.306;2023-02-22T04:10:01;101275.56;;;6.16;100.00
18900;BME280;9582;52.018;6.306;2023-02-22T04:12:29;101280.75;;;6.16;100.00
18900;BME280;9582;52.018;6.306;2023-02-22T04:14:59;101272.13;;;6.16;100.00
18900;BME280;9582;52.018;6.306;2023-02-22T04:17:26;101269.56;;;6.14;100.00
18900;BME280;9582;52.018;6.306;2023-02-22T04:19:53;101272.97;;;6.16;100.00
18900;BME280;9582;52.018;6.306;2023-02-22T04:22:23;101270.44;;;6.15;100.00
18900;BME280;9582;52.018;6.306;2023-02-22T04:24:51;101264.44;;;6.11;100.00
18900;BME280;9582;52.018;6.306;2023-02-22T04:27:19;101265.28;;;6.12;100.00
18900;BME280;9582;52.018;6.306;2023-02-22T04:29:46;101264.28;;;6.19;100.00
18900;BME280;9582;52.018;6.306;2023-02-22T04:32:14;101261.72;;;6.16;100.00
18900;BME280;9582;52.018;6.306;2023-02-22T04:34:41;101257.44;;;6.15;100.00
18900;BME280;9582;52.018;6.306;2023-02-22T04:37:07;101257.50;;;6.10;100.00
18900;BME280;9582;52.018;6.306;2023-02-22T04:39:36;101255.81;;;6.09;100.00
18900;BME280;9582;52.018;6.306;2023-02-22T04:42:03;101257.50;;;6.12;100.00
18900;BME280;9582;52.018;6.306;2023-02-22T04:44:30;101252.31;;;6.10;100.00
18900;BME280;9582;52.018;6.306;2023-02-22T04:46:57;101248.69;;;6.20;100.00
18900;BME280;9582;52.018;6.306;2023-02-22T04:49:24;101241.75;;;6.21;100.00
18900;BME280;9582;52.018;6.306;2023-02-22T04:51:52;101246.94;;;6.21;100.00
18900;BME280;9582;52.018;6.306;2023-02-22T04:54:22;101249.78;;;6.09;100.00
18900;BME280;9582;52.018;6.306;2023-02-22T04:56:51;101246.47;;;6.01;100.00
18900;BME280;9582;52.018;6.306;2023-02-22T04:59:17;101235.97;;;6.07;100.00
18900;BME280;9582;52.018;6.306;2023-02-22T05:01:50;101230.78;;;6.05;100.00
18900;BME280;9582;52.018;6.306;2023-02-22T05:04:17;101236.91;;;6.03;100.00
18900;BME280;9582;52.018;6.306;2023-02-22T05:06:43;101236.09;;;6.01;100.00
18900;BME280;9582;52.018;6.306;2023-02-22T05:09:10;101230.91;;;6.01;100.00
18900;BME280;9582;52.018;6.306;2023-02-22T05:11:36;101232.69;;;5.97;100.00
18900;BME280;9582;52.018;6.306;2023-02-22T05:14:04;101225.81;;;5.95;100.00
18900;BME280;9582;52.018;6.306;2023-02-22T05:16:32;101223.19;;;5.96;100.00
18900;BME280;9582;52.018;6.306;2023-02-22T05:18:58;101218.97;;;5.91;100.00
18900;BME280;9582;52.018;6.306;2023-02-22T05:21:25;101218.03;;;5.95;100.00
18900;BME280;9582;52.018;6.306;2023-02-22T05:23:51;101217.28;;;5.90;100.00
18900;BME280;9582;52.018;6.306;2023-02-22T05:26:18;101215.56;;;5.89;100.00
18900;BME280;9582;52.018;6.306;2023-02-22T05:28:44;101213.78;;;5.91;100.00
18900;BME280;9582;52.018;6.306;2023-02-22T05:31:12;101212.03;;;5.91;100.00
18900;BME280;9582;52.018;6.306;2023-02-22T05:33:39;101216.34;;;5.92;100.00
18900;BME280;9582;52.018;6.306;2023-02-22T05:36:06;101202.53;;;5.90;100.00
18900;BME280;9582;52.018;6.306;2023-02-22T05:38:33;101204.38;;;5.83;100.00
18900;BME280;9582;52.018;6.306;2023-02-22T05:41:00;101199.97;;;5.89;100.00
18900;BME280;9582;52.018;6.306;2023-02-22T05:43:26;101187.88;;;5.89;100.00
18900;BME280;9582;52.018;6.306;2023-02-22T05:45:53;101192.22;;;5.87;100.00
18900;BME280;9582;52.018;6.306;2023-02-22T05:48:21;101188.75;;;5.88;100.00
18900;BME280;9582;52.018;6.306;2023-02-22T05:50:47;101193.06;;;5.88;100.00
18900;BME280;9582;52.018;6.306;2023-02-22T05:53:14;101194.00;;;5.85;100.00
18900;BME280;9582;52.018;6.306;2023-02-22T05:55:41;101189.66;;;5.86;100.00
18900;BME280;9582;52.018;6.306;2023-02-22T05:58:08;101180.13;;;5.86;100.00
18900;BME280;9582;52.018;6.306;2023-02-22T06:00:34;101184.47;;;5.86;100.00
18900;BME280;9582;52.018;6.306;2023-02-22T06:03:03;101182.72;;;5.84;100.00
18900;BME280;9582;52.018;6.306;2023-02-22T06:05:31;101179.28;;;5.86;100.00
18900;BME280;9582;52.018;6.306;2023-02-22T06:07:59;101176.63;;;5.89;100.00
18900;BME280;9582;52.018;6.306;2023-02-22T06:10:26;101180.25;;;5.78;100.00
18900;BME280;9582;52.018;6.306;2023-02-22T06:12:53;101168.09;;;5.80;100.00
18900;BME280;9582;52.018;6.306;2023-02-22T06:15:21;101174.91;;;5.88;100.00
18900;BME280;9582;52.018;6.306;2023-02-22T06:17:50;101174.09;;;5.86;100.00
18900;BME280;9582;52.018;6.306;2023-02-22T06:20:18;101170.66;;;5.83;100.00
18900;BME280;9582;52.018;6.306;2023-02-22T06:22:47;101171.50;;;5.84;100.00
18900;BME280;9582;52.018;6.306;2023-02-22T06:25:16;101173.25;;;5.82;100.00
18900;BME280;9582;52.018;6.306;2023-02-22T06:27:43;101171.56;;;5.81;100.00
18900;BME280;9582;52.018;6.306;2023-02-22T06:30:11;101170.69;;;5.80;100.00
18900;BME280;9582;52.018;6.306;2023-02-22T06:32:38;101168.97;;;5.79;100.00
18900;BME280;9582;52.018;6.306;2023-02-22T06:35:05;101168.03;;;5.83;100.00
18900;BME280;9582;52.018;6.306;2023-02-22T06:37:32;101179.28;;;5.84;100.00
18900;BME280;9582;52.018;6.306;2023-02-22T06:40:00;101174.16;;;5.81;100.00
18900;BME280;9582;52.018;6.306;2023-02-22T06:42:27;101170.69;;;5.80;100.00
18900;BME280;9582;52.018;6.306;2023-02-22T06:44:54;101178.41;;;5.85;100.00
18900;BME280;9582;52.018;6.306;2023-02-22T06:47:20;101183.63;;;5.83;100.00
18900;BME280;9582;52.018;6.306;2023-02-22T06:49:51;101181.88;;;5.86;100.00
18900;BME280;9582;52.018;6.306;2023-02-22T06:52:18;101183.56;;;5.88;100.00
18900;BME280;9582;52.018;6.306;2023-02-22T06:54:45;101181.88;;;5.86;100.00
18900;BME280;9582;52.018;6.306;2023-02-22T06:57:12;101174.84;;;5.91;100.00
18900;BME280;9582;52.018;6.306;2023-02-22T06:59:39;101179.09;;;5.95;100.00
18900;BME280;9582;52.018;6.306;2023-02-22T07:02:06;101174.72;;;5.97;100.00
18900;BME280;9582;52.018;6.306;2023-02-22T07:04:32;101177.38;;;5.94;100.00
18900;BME280;9582;52.018;6.306;2023-02-22T07:06:59;101180.78;;;5.96;100.00
18900;BME280;9582;52.018;6.306;2023-02-22T07:09:25;101177.38;;;5.95;100.00
18900;BME280;9582;52.018;6.306;2023-02-22T07:11:52;101185.91;;;6.00;100.00
18900;BME280;9582;52.018;6.306;2023-02-22T07:14:19;101179.00;;;5.99;100.00
18900;BME280;9582;52.018;6.306;2023-02-22T07:16:46;101181.69;;;5.95;100.00
18900;BME280;9582;52.018;6.306;2023-02-22T07:19:13;101179.91;;;5.97;100.00
18900;BME280;9582;52.018;6.306;2023-02-22T07:21:39;101173.91;;;5.95;100.00
18900;BME280;9582;52.018;6.306;2023-02-22T07:24:06;101176.56;;;5.92;100.00
18900;BME280;9582;52.018;6.306;2023-02-22T07:26:37;101178.31;;;5.91;100.00
18900;BME280;9582;52.018;6.306;2023-02-22T07:29:05;101174.84;;;5.92;100.00
18900;BME280;9582;52.018;6.306;2023-02-22T07:31:35;101169.63;;;5.92;100.00
18900;BME280;9582;52.018;6.306;2023-02-22T07:34:02;101169.66;;;5.91;100.00
18900;BME280;9582;52.018;6.306;2023-02-22T07:36:29;101172.19;;;5.94;100.00
18900;BME280;9582;52.018;6.306;2023-02-22T07:38:55;101166.94;;;5.98;100.00
18900;BME280;9582;52.018;6.306;2023-02-22T07:41:22;101170.34;;;5.99;100.00
18900;BME280;9582;52.018;6.306;2023-02-22T07:43:48;101172.19;;;5.95;100.00
18900;BME280;9582;52.018;6.306;2023-02-22T07:46:15;101172.19;;;5.95;100.00
18900;BME280;9582;52.018;6.306;2023-02-22T07:48:43;101173.91;;;5.95;100.00
18900;BME280;9582;52.018;6.306;2023-02-22T07:51:09;101171.28;;;5.96;100.00
18900;BME280;9582;52.018;6.306;2023-02-22T07:53:36;101177.44;;;5.92;100.00
18900;BME280;9582;52.018;6.306;2023-02-22T07:56:04;101172.13;;;5.97;100.00
18900;BME280;9582;52.018;6.306;2023-02-22T07:58:33;101177.31;;;5.98;100.00
18900;BME280;9582;52.018;6.306;2023-02-22T08:00:59;101179.91;;;5.98;100.00
18900;BME280;9582;52.018;6.306;2023-02-22T08:03:29;101175.47;;;6.03;100.00
18900;BME280;9582;52.018;6.306;2023-02-22T08:05:57;101179.75;;;6.06;100.00
18900;BME280;9582;52.018;6.306;2023-02-22T08:08:24;101175.41;;;6.06;100.00
18900;BME280;9582;52.018;6.306;2023-02-22T08:10:51;101180.59;;;6.05;100.00
18900;BME280;9582;52.018;6.306;2023-02-22T08:13:19;101173.66;;;6.07;100.00
18900;BME280;9582;52.018;6.306;2023-02-22T08:15:46;101171.94;;;6.06;100.00
18900;BME280;9582;52.018;6.306;2023-02-22T08:18:15;101172.94;;;6.00;100.00
18900;BME280;9582;52.018;6.306;2023-02-22T08:20:44;101166.84;;;6.01;100.00
18900;BME280;9582;52.018;6.306;2023-02-22T08:23:13;101167.69;;;6.03;100.00
18900;BME280;9582;52.018;6.306;2023-02-22T08:25:41;101173.63;;;6.08;100.00
18900;BME280;9582;52.018;6.306;2023-02-22T08:28:10;101165.88;;;6.07;100.00
18900;BME280;9582;52.018;6.306;2023-02-22T08:30:38;101170.16;;;6.08;100.00
18900;BME280;9582;52.018;6.306;2023-02-22T08:33:07;101171.84;;;6.10;100.00
18900;BME280;9582;52.018;6.306;2023-02-22T08:35:33;101168.38;;;6.11;100.00
18900;BME280;9582;52.018;6.306;2023-02-22T08:38:02;101171.84;;;6.10;100.00
18900;BME280;9582;52.018;6.306;2023-02-22T08:40:33;101172.69;;;6.11;100.00
18900;BME280;9582;52.018;6.306;2023-02-22T08:43:00;101170.00;;;6.15;100.00
18900;BME280;9582;52.018;6.306;2023-02-22T08:45:27;101166.47;;;6.19;100.00
18900;BME280;9582;52.018;6.306;2023-02-22T08:47:54;101168.19;;;6.19;100.00
18900;BME280;9582;52.018;6.306;2023-02-22T08:50:23;101164.69;;;6.21;100.00
18900;BME280;9582;52.018;6.306;2023-02-22T08:52:49;101167.34;;;6.18;100.00
18900;BME280;9582;52.018;6.306;2023-02-22T08:55:18;101162.13;;;6.20;100.00
18900;BME280;9582;52.018;6.306;2023-02-22T08:57:46;101156.00;;;6.22;100.00
18900;BME280;9582;52.018;6.306;2023-02-22T09:00:14;101169.78;;;6.26;100.00
18900;BME280;9582;52.018;6.306;2023-02-22T09:02:41;101164.53;;;6.29;100.00
18900;BME280;9582;52.018;6.306;2023-02-22T09:05:07;101171.47;;;6.28;100.00
18900;BME280;9582;52.018;6.306;2023-02-22T09:07:34;101150.72;;;6.27;100.00
18900;BME280;9582;52.018;6.306;2023-02-22T09:10:01;101158.53;;;6.25;100.00
18900;BME280;9582;52.018;6.306;2023-02-22T09:12:27;101150.66;;;6.30;100.00
18900;BME280;9582;52.018;6.306;2023-02-22T09:14:55;101159.28;;;6.32;100.00
18900;BME280;9582;52.018;6.306;2023-02-22T09:17:22;101156.50;;;6.39;100.00
18900;BME280;9582;52.018;6.306;2023-02-22T09:19:48;101155.66;;;6.39;100.00
18900;BME280;9582;52.018;6.306;2023-02-22T09:22:15;101159.81;;;6.46;100.00
18900;BME280;9582;52.018;6.306;2023-02-22T09:24:41;101161.63;;;6.43;100.00
18900;BME280;9582;52.018;6.306;2023-02-22T09:27:08;101164.97;;;6.48;100.00
18900;BME280;9582;52.018;6.306;2023-02-22T09:29:36;101165.75;;;6.51;100.00
18900;BME280;9582;52.018;6.306;2023-02-22T09:32:05;101159.72;;;6.51;100.00
18900;BME280;9582;52.018;6.306;2023-02-22T09:34:31;101162.25;;;6.54;100.00
18900;BME280;9582;52.018;6.306;2023-02-22T09:36:59;101164.63;;;6.63;100.00
18900;BME280;9582;52.018;6.306;2023-02-22T09:39:26;101156.78;;;6.64;100.00
18900;BME280;9582;52.018;6.306;2023-02-22T09:42:02;101142.91;;;6.65;100.00
18900;BME280;9582;52.018;6.306;2023-02-22T09:44:35;101140.13;;;6.73;100.00
18900;BME280;9582;52.018;6.306;2023-02-22T09:47:13;101140.00;;;6.77;100.00
18900;BME280;9582;52.018;6.306;2023-02-22T09:49:47;101133.88;;;6.81;100.00
18900;BME280;9582;52.018;6.306;2023-02-22T09:52:24;101129.31;;;6.89;100.00
18900;BME280;9582;52.018;6.306;2023-02-22T09:54:55;101128.25;;;6.98;100.00
18900;BME280;9582;52.018;6.306;2023-02-22T09:57:33;101119.41;;;7.05;100.00
18900;BME280;9582;52.018;6.306;2023-02-22T10:00:03;101115.81;;;7.09;100.00
18900;BME280;9582;52.018;6.306;2023-02-22T10:02:45;101121.00;;;7.11;100.00
18900;BME280;9582;52.018;6.306;2023-02-22T10:05:18;101122.59;;;7.15;100.00
18900;BME280;9582;52.018;6.306;2023-02-22T10:07:51;101121.66;;;7.19;100.00
18900;BME280;9582;52.018;6.306;2023-02-22T10:10:21;101122.34;;;7.25;100.00
18900;BME280;9582;52.018;6.306;2023-02-22T10:12:58;101117.09;;;7.27;100.00
18900;BME280;9582;52.018;6.306;2023-02-22T10:15:35;101107.47;;;7.30;100.00
18900;BME280;9582;52.018;6.306;2023-02-22T10:21:09;101105.31;;;7.46;100.00
18900;BME280;9582;52.018;6.306;2023-02-22T10:23:48;101104.28;;;7.51;100.00
18900;BME280;9582;52.018;6.306;2023-02-22T10:26:20;101099.78;;;7.56;100.00
18900;BME280;9582;52.018;6.306;2023-02-22T10:28:52;101098.03;;;7.59;100.00
18900;BME280;9582;52.018;6.306;2023-02-22T10:31:25;101099.63;;;7.63;100.00
18900;BME280;9582;52.018;6.306;2023-02-22T10:33:58;101096.63;;;7.76;100.00
18900;BME280;9582;52.018;6.306;2023-02-22T10:36:26;101094.84;;;7.78;100.00
18900;BME280;9582;52.018;6.306;2023-02-22T10:38:55;101099.13;;;7.81;100.00
18900;BME280;9582;52.018;6.306;2023-02-22T10:41:27;101099.81;;;7.87;100.00
18900;BME280;9582;52.018;6.306;2023-02-22T10:43:55;101088.06;;;8.02;100.00
18900;BME280;9582;52.018;6.306;2023-02-22T10:46:23;101085.25;;;8.08;100.00
18900;BME280;9582;52.018;6.306;2023-02-22T10:48:55;101095.41;;;8.17;100.00
18900;BME280;9582;52.018;6.306;2023-02-22T10:51:24;101085.59;;;8.25;100.00
18900;BME280;9582;52.018;6.306;2023-02-22T10:53:58;101077.56;;;8.33;100.00
18900;BME280;9582;52.018;6.306;2023-02-22T10:56:28;101074.78;;;8.39;100.00
18900;BME280;9582;52.018;6.306;2023-02-22T10:58:56;101066.59;;;8.51;100.00
18900;BME280;9582;52.018;6.306;2023-02-22T11:01:26;101069.88;;;8.56;100.00
18900;BME280;9582;52.018;6.306;2023-02-22T11:04:01;101067.09;;;8.62;100.00
18900;BME280;9582;52.018;6.306;2023-02-22T11:06:30;101057.16;;;8.73;100.00
18900;BME280;9582;52.018;6.306;2023-02-22T11:09:04;101049.19;;;8.78;100.00
18900;BME280;9582;52.018;6.306;2023-02-22T11:11:35;101040.34;;;8.82;100.00
18900;BME280;9582;52.018;6.306;2023-02-22T11:14:02;101035.47;;;8.97;100.00
18900;BME280;9582;52.018;6.306;2023-02-22T11:16:32;101040.44;;;9.03;100.00
18900;BME280;9582;52.018;6.306;2023-02-22T11:19:08;101037.50;;;9.14;100.00
18900;BME280;9582;52.018;6.306;2023-02-22T11:21:37;101030.19;;;9.23;100.00
18900;BME280;9582;52.018;6.306;2023-02-22T11:24:06;101038.56;;;9.32;100.00
18900;BME280;9582;52.018;6.306;2023-02-22T11:26:39;101019.13;;;9.40;100.00
18900;BME280;9582;52.018;6.306;2023-02-22T11:29:11;101015.50;;;9.44;100.00
18900;BME280;9582;52.018;6.306;2023-02-22T11:31:42;101019.66;;;9.50;100.00
18900;BME280;9582;52.018;6.306;2023-02-22T11:34:28;101015.00;;;9.58;100.00
18900;BME280;9582;52.018;6.306;2023-02-22T11:36:56;101013.97;;;9.62;100.00
18900;BME280;9582;52.018;6.306;2023-02-22T11:39:39;101003.16;;;9.71;100.00
18900;BME280;9582;52.018;6.306;2023-02-22T11:42:17;100993.41;;;9.76;100.00
18900;BME280;9582;52.018;6.306;2023-02-22T11:44:45;100992.38;;;9.80;100.00
18900;BME280;9582;52.018;6.306;2023-02-22T11:47:12;100991.91;;;9.92;100.00
18900;BME280;9582;52.018;6.306;2023-02-22T11:49:42;100995.97;;;9.99;100.00
18900;BME280;9582;52.018;6.306;2023-02-22T11:52:19;100988.63;;;10.09;100.00
18900;BME280;9582;52.018;6.306;2023-02-22T11:54:57;100978.56;;;10.21;100.00
18900;BME280;9582;52.018;6.306;2023-02-22T11:57:36;100984.25;;;10.31;100.00
18900;BME280;9582;52.018;6.306;2023-02-22T12:00:18;100977.78;;;10.39;100.00
18900;BME280;9582;52.018;6.306;2023-02-22T12:03:23;100980.94;;;10.48;100.00
18900;BME280;9582;52.018;6.306;2023-02-22T12:06:03;100980.50;;;10.58;100.00
18900;BME280;9582;52.018;6.306;2023-02-22T12:08:43;100978.41;;;10.66;100.00
18900;BME280;9582;52.018;6.306;2023-02-22T12:11:18;100990.25;;;10.75;100.00
18900;BME280;9582;52.018;6.306;2023-02-22T12:14:00;100990.06;;;10.79;100.00
18900;BME280;9582;52.018;6.306;2023-02-22T12:16:36;100981.69;;;10.91;100.00
18900;BME280;9582;52.018;6.306;2023-02-22T12:19:14;100990.19;;;10.96;100.00
18900;BME280;9582;52.018;6.306;2023-02-22T12:21:49;100986.44;;;11.02;100.00
18900;BME280;9582;52.018;6.306;2023-02-22T12:24:20;100974.25;;;11.01;100.00
18900;BME280;9582;52.018;6.306;2023-02-22T12:26:50;100968.34;;;10.97;100.00
18900;BME280;9582;52.018;6.306;2023-02-22T12:29:26;100969.56;;;11.09;100.00
18900;BME280;9582;52.018;6.306;2023-02-22T12:31:57;100963.22;;;11.15;100.00
18900;BME280;9582;52.018;6.306;2023-02-22T12:34:30;100957.81;;;11.18;100.00
18900;BME280;9582;52.018;6.306;2023-02-22T12:37:11;100969.50;;;11.29;100.00
18900;BME280;9582;52.018;6.306;2023-02-22T12:39:46;100957.72;;;11.39;100.00
18900;BME280;9582;52.018;6.306;2023-02-22T12:42:17;100961.81;;;11.45;100.00
18900;BME280;9582;52.018;6.306;2023-02-22T12:44:49;100965.81;;;11.52;100.00
18900;BME280;9582;52.018;6.306;2023-02-22T12:47:20;100959.59;;;11.54;100.00
18900;BME280;9582;52.018;6.306;2023-02-22T12:49:57;100955.31;;;11.53;100.00
18900;BME280;9582;52.018;6.306;2023-02-22T12:52:40;100962.88;;;11.59;100.00
18900;BME280;9582;52.018;6.306;2023-02-22T12:55:13;100953.94;;;11.64;100.00
18900;BME280;9582;52.018;6.306;2023-02-22T12:57:44;100951.47;;;11.60;100.00
18900;BME280;9582;52.018;6.306;2023-02-22T13:00:16;100951.59;;;11.57;100.00
18900;BME280;9582;52.018;6.306;2023-02-22T13:02:55;100951.41;;;11.62;100.00
18900;BME280;9582;52.018;6.306;2023-02-22T13:05:22;100952.19;;;11.64;100.00
18900;BME280;9582;52.018;6.306;2023-02-22T13:07:58;100949.47;;;11.66;100.00
18900;BME280;9582;52.018;6.306;2023-02-22T13:10:38;100934.44;;;11.71;100.00
18900;BME280;9582;52.018;6.306;2023-02-22T13:13:16;100933.34;;;11.75;100.00
18900;BME280;9582;52.018;6.306;2023-02-22T13:15:52;100934.97;;;11.77;100.00
18900;BME280;9582;52.018;6.306;2023-02-22T13:18:25;100931.22;;;11.83;100.00